Chester, SC

12:07 PM EDT on October 02, 2014 (GMT -0400)
Hubs Farm | Change Station
CLOSE
Current Station
Personal Weather Station
Location: Chester, SC
Elevation: 480 ft
Nearby Weather Stations

Elev 480 ft 34.69 °N, 81.28 °W | Updated 15 seconds ago

Clear
Clear
82.4 °F
Feels Like 87 °F
N
1.2
Wind Variable Wind from NW
Gusts 0.0 mph

Today
High -- | Low -- °F
--% Chance of Precip.
Yesterday
High -- | Low -- °F
Precip. -- in
7:20 AM 7:07 PM
First Quarter, 60% visible
Pressure 30.17 in
Visibility -9999.0 miles
Clouds Clear
Heat Index 87 °F
Dew Point 72 °F
Humidity 71%
Rainfall 0.00 in
Snow Depth Not available.
UV 7 out of 12
Pollen 4.60 out of 12
Ozone Good
Flu Activity Not available.
METAR KDCM 021555Z AUTO 00000KT CLR 27/17 A3017 RMK AO2 PWINO

More Conditions Fewer Conditions

Pressure 30.17 in
Visibility -9999.0 miles
Clouds Clear
Heat Index 87 °F
Dew Point 72 °F
Humidity 71%
Rainfall 0.00 in
Snow Depth Not available.
UV 7 out of 12
Pollen 4.60 out of 12
Ozone Good
Flu Activity Not available.
METAR KDCM 021555Z AUTO 00000KT CLR 27/17 A3017 RMK AO2 PWINO

More Conditions Fewer Conditions

10-Day Weather Forecast

Almanac

Astronomy

Oct. 02, 2014 Rise Set
Actual Time 7:20 AM EDT 7:07 PM EDT
Civil Twilight 6:55 AM EDT 7:32 PM EDT
Nautical Twilight 6:25 AM EDT 8:01 PM EDT
Astronomical Twilight 5:56 AM EDT 8:31 PM EDT
Moon 3:00 PM EDT 12:49 AM EDT
Length of Visible Light 12h 37m
Length of Day
11h 47m
Tomorrow will be 2m 9s shorter.
First Quarter, 60% of the Moon is Illuminated
Today
First Quarter
Oct 8
Full
Oct 15
Last Quarter
Oct 23
New
Oct 30
First Quarter

Today's Extremes

State Highs State Lows

Community

WunderPhotos

Upload Photos

1,758,286 photos uploaded!

WunderBlogs® & News

Nearby

Air Quality

  Air Quality AQ Index Pollutant
Yesterday Good
OZONE
Current Good
OZONE

Snow Depth

Station Depth Elevation
No new snow has been reported.

Earthquake Activity

City Distance Mag. Time & Date
No recent earthquake activity has been reported nearby.
Minimum magnitude displayed is 2.5.

Coastal Water Temperatures

Place Temperature
No Stations Reporting

Nearby Weather Stations